Overview Statistics Trail Chart Weather Telemetry Raw packets
 

This is the latest recevied telemetry packets stored in our database for station/object DO1ATV-98. If no packets are shown the sender has not sent any telemetry packets the latest 10 day(s).

Telemetry packets is used to share measurements like repeteater parameters, battery voltage, radiation readings (or any other measurements).

<< 1 2 3 4 >>
Time Press* Temp.in* Hum* QNH* Temp.out*
1777947701 905.6 hPa 23.2 C deg 0 % 1012.6 hPa 12.4 C deg
1777947701 905.6 hPa 23.2 C deg 0 % 1012.6 hPa 12.4 C deg
1777946460 905.7 hPa 23.2 C deg 0 % 1012.7 hPa 12.4 C deg
1777946460 905.7 hPa 23.2 C deg 0 % 1012.7 hPa 12.4 C deg
1777943917 906.1 hPa 23.2 C deg 0 % 1013.1 hPa 12.4 C deg
1777943917 906.1 hPa 23.2 C deg 0 % 1013.1 hPa 12.4 C deg
1777942512 906.2 hPa 23.2 C deg 0 % 1013.3 hPa 12.2 C deg
1777942506 906.2 hPa 23.2 C deg 0 % 1013.3 hPa 12.2 C deg
1777940718 906.5 hPa 23.2 C deg 0 % 1013.6 hPa 12.1 C deg
1777940718 906.5 hPa 23.2 C deg 0 % 1013.6 hPa 12.1 C deg
1777939059 906.8 hPa 23.2 C deg 0 % 1013.9 hPa 12.3 C deg
1777939053 906.8 hPa 23.2 C deg 0 % 1013.9 hPa 12.3 C deg
1777936871 907.1 hPa 23.2 C deg 0 % 1014.2 hPa 12.4 C deg
1777936871 907.1 hPa 23.2 C deg 0 % 1014.2 hPa 12.4 C deg
1777934991 907.2 hPa 23.2 C deg 0 % 1014.4 hPa 12 C deg
1777934991 907.2 hPa 23.2 C deg 0 % 1014.4 hPa 12 C deg
1777933297 907.3 hPa 23.1 C deg 0 % 1014.5 hPa 11.9 C deg
1777933297 907.3 hPa 23.1 C deg 0 % 1014.5 hPa 11.9 C deg
1777931242 907.6 hPa 23.1 C deg 0 % 1014.9 hPa 11 C deg
1777931235 907.6 hPa 23.1 C deg 0 % 1014.9 hPa 11 C deg
1777929384 907.5 hPa 23.2 C deg 0 % 1014.7 hPa 11 C deg
1777929377 907.5 hPa 23.2 C deg 0 % 1014.7 hPa 11 C deg
1777927779 907.5 hPa 23.2 C deg 0 % 1014.8 hPa 11 C deg
1777927779 907.5 hPa 23.2 C deg 0 % 1014.8 hPa 11 C deg
1777924883 0 hPa 0 C deg 0 % 0 hPa 11.2 C deg
*Used Equation Coefficients:
Press: 0, 1, 0
Temp.in: 0, 1, 0
Hum: 0, 1, 0
QNH: 0, 1, 0
Temp.out: 0, 1, 0

  • The parameter names for the analog channels will be Value1, Value2, Value3 (up to Value5) if station has not sent a PARAM-packet that specifies the parameter names for each analog channel.
  • Each analog value is a decimal number between 000 and 255 (according to APRS specifications). The receiver use the telemetry equation coefficientsto to restore the original sensor values. If no EQNS-packet with equation coefficients is sent we will show the values as is (this corresponds to the equation coefficients a=0, b=1 and c=0).
    The sent equation coefficients is used in the equation: a * value2 + b * value + c.
  • The units for the analog values will not be shown if station has not sent a UNIT-packet specifying what unit's to use.
  • The parameter names for the digital bits will be Bit1, Bit2, Bit3 (up to Bit8) if station has not sent a PARAM-packet that specifies the parameter names for each digital bit.
  • All bit labels will be named "On" if station has not sent a UNIT-packet that specifies the label of each bit.
  • A bit is considered to be On when the bit is 1 if station has not sent a BITS-packet that specifies another "Bit sense" (a BITS-packet specify the state of the bits that match the BIT labels)